Latest Weather Observations for Ocean Reef

IDW60901

Issued at 11:51 pm WST Tuesday 7 July 2015 (issued every 10 minutes, with the page automatically refreshed every 10 minutes)

About weather observations | Map of Perth area stations | Latest observations for Perth area | Other Formats
Station Details ID: 009214 Name: OCEAN REEF Lat: -31.76 Lon: 115.73 Height: 10.0 m
Data from the previous 72 hours. | See also: Recent months for locations in Western Australia
Date/Time
WST
Tmp

°C
App
Tmp
°C
Dew
Point
°C
Rel
Hum
%
Delta-T

°C
Wind Press
QNH
hPa
Press
MSL
hPa
Rain
since
9 am
mm
Dir
 
Spd
km/h
Gust
km/h
Spd
kts
Gust
kts
07/11:30pm - - - - - SSE 32 41 17 22 - - -
07/11:00pm - - - - - SSE 24 35 13 19 - - -
07/10:30pm - - - - - S 28 37 15 20 - - -
07/10:07pm - - - - - S 46 65 25 35 - - -
07/10:00pm - - - - - SSW 50 65 27 35 - - -
07/09:59pm - - - - - SSW 48 65 26 35 - - -
07/09:30pm - - - - - SW 35 43 19 23 - - -
07/09:00pm - - - - - SSW 35 44 19 24 - - -
07/08:30pm - - - - - SW 35 43 19 23 - - -
07/08:00pm - - - - - SSW 32 37 17 20 - - -
07/07:30pm - - - - - SSW 32 37 17 20 - - -
07/07:00pm - - - - - SW 33 41 18 22 - - -
07/06:30pm - - - - - SW 35 41 19 22 - - -
07/06:28pm - - - - - SW 33 41 18 22 - - -
07/06:00pm - - - - - WSW 19 22 10 12 - - -
07/05:30pm - - - - - WSW 22 28 12 15 - - -
07/05:00pm - - - - - WSW 24 28 13 15 - - -
07/04:30pm - - - - - WSW 28 32 15 17 - - -
07/04:00pm - - - - - WSW 30 33 16 18 - - -
07/03:32pm - - - - - WSW 30 48 16 26 - - -
07/03:30pm - - - - - WSW 32 48 17 26 - - -
07/03:00pm - - - - - WSW 30 37 16 20 - - -
07/02:30pm - - - - - SW 30 41 16 22 - - -
07/02:00pm - - - - - WSW 24 32 13 17 - - -
07/01:30pm - - - - - NNW 24 28 13 15 - - -
07/01:00pm - - - - - NW 24 30 13 16 - - -
07/12:30pm - - - - - NW 13 15 7 8 - - -
07/12:00pm - - - - - NNW 20 30 11 16 - - -
07/11:39am - - - - - NNW 26 50 14 27 - - -
07/11:30am - - - - - N 17 20 9 11 - - -
07/11:00am - - - - - N 20 28 11 15 - - -
07/10:30am - - - - - N 17 28 9 15 - - -
07/10:00am - - - - - N 20 30 11 16 - - -
07/09:30am - - - - - N 20 28 11 15 - - -
07/09:00am - - - - - N 17 26 9 14 - - -
07/08:30am - - - - - NNE 19 26 10 14 - - -
07/08:00am - - - - - NNE 19 26 10 14 - - -
07/07:30am - - - - - NNE 17 24 9 13 - - -
07/07:00am - - - - - NNE 17 20 9 11 - - -
07/06:30am - - - - - NNE 15 22 8 12 - - -
07/06:00am - - - - - NNE 15 19 8 10 - - -
07/05:30am - - - - - NNE 15 24 8 13 - - -
07/05:00am - - - - - N 15 19 8 10 - - -
07/04:30am - - - - - NNE 15 20 8 11 - - -
07/04:00am - - - - - NNE 15 17 8 9 - - -
07/03:30am - - - - - NNE 13 13 7 7 - - -
07/03:00am - - - - - NW 11 13 6 7 - - -
07/02:30am - - - - - WNW 15 19 8 10 - - -
07/02:00am - - - - - W 17 20 9 11 - - -
07/01:30am - - - - - W 20 24 11 13 - - -
07/01:00am - - - - - W 22 28 12 15 - - -
07/12:30am - - - - - W 28 32 15 17 - - -
07/12:00am - - - - - W 28 30 15 16 - - -
 
Date/Time
WST
Tmp

°C
App
Tmp
°C
Dew
Point
°C
Rel
Hum
%
Delta-T

°C
Wind Press
QNH
hPa
Press
MSL
hPa
Rain
since
9 am
mm
Dir
 
Spd
km/h
Gust
km/h
Spd
kts
Gust
kts
06/11:30pm - - - - - W 24 30 13 16 - - -
06/11:00pm - - - - - W 20 24 11 13 - - -
06/10:30pm - - - - - W 19 22 10 12 - - -
06/10:00pm - - - - - WNW 17 20 9 11 - - -
06/09:30pm - - - - - W 20 24 11 13 - - -
06/09:00pm - - - - - W 13 15 7 8 - - -
06/08:30pm - - - - - WSW 13 15 7 8 - - -
06/08:00pm - - - - - W 22 37 12 20 - - -
06/07:30pm - - - - - WSW 20 33 11 18 - - -
06/07:00pm - - - - - WSW 15 20 8 11 - - -
06/06:30pm - - - - - W 17 22 9 12 - - -
06/06:00pm - - - - - NW 26 30 14 16 - - -
06/05:30pm - - - - - N 17 22 9 12 - - -
06/05:00pm - - - - - NNW 11 13 6 7 - - -
06/04:30pm - - - - - NNW 24 30 13 16 - - -
06/04:00pm - - - - - NNW 24 30 13 16 - - -
06/03:30pm - - - - - NNW 26 32 14 17 - - -
06/03:00pm - - - - - N 24 37 13 20 - - -
06/02:30pm - - - - - NNW 32 35 17 19 - - -
06/02:00pm - - - - - NNW 28 33 15 18 - - -
06/01:30pm - - - - - NW 28 33 15 18 - - -
06/01:00pm - - - - - NNW 28 39 15 21 - - -
06/12:30pm - - - - - NNW 22 28 12 15 - - -
06/12:00pm - - - - - NNW 20 26 11 14 - - -
06/11:30am - - - - - NNE 15 22 8 12 - - -
06/11:00am - - - - - N 13 22 7 12 - - -
06/10:30am - - - - - N 17 20 9 11 - - -
06/10:00am - - - - - NNE 17 26 9 14 - - -
06/09:30am - - - - - NE 20 28 11 15 - - -
06/09:00am - - - - - NE 17 24 9 13 - - -
06/08:30am - - - - - NE 19 22 10 12 - - -
06/08:00am - - - - - NE 17 22 9 12 - - -
06/07:30am - - - - - NE 17 22 9 12 - - -
06/07:00am - - - - - NE 17 22 9 12 - - -
06/06:30am - - - - - NE 19 24 10 13 - - -
06/06:00am - - - - - NE 19 24 10 13 - - -
06/05:30am - - - - - ENE 19 22 10 12 - - -
06/05:00am - - - - - NE 19 22 10 12 - - -
06/04:30am - - - - - NE 15 22 8 12 - - -
06/04:00am - - - - - ENE 19 20 10 11 - - -
06/03:30am - - - - - ENE 15 19 8 10 - - -
06/03:00am - - - - - NE 15 20 8 11 - - -
06/02:30am - - - - - NE 15 19 8 10 - - -
06/02:00am - - - - - ENE 15 17 8 9 - - -
06/01:30am - - - - - ENE 15 17 8 9 - - -
06/01:00am - - - - - ENE 17 17 9 9 - - -
06/12:30am - - - - - ENE 13 15 7 8 - - -
06/12:00am - - - - - ENE 13 17 7 9 - - -
 
Date/Time
WST
Tmp

°C
App
Tmp
°C
Dew
Point
°C
Rel
Hum
%
Delta-T

°C
Wind Press
QNH
hPa
Press
MSL
hPa
Rain
since
9 am
mm
Dir
 
Spd
km/h
Gust
km/h
Spd
kts
Gust
kts
05/11:30pm - - - - - ENE 17 19 9 10 - - -
05/11:00pm - - - - - NE 13 13 7 7 - - -
05/10:30pm - - - - - NE 11 13 6 7 - - -
05/10:00pm - - - - - NE 11 13 6 7 - - -
05/09:30pm - - - - - NNE 11 11 6 6 - - -
05/09:00pm - - - - - ENE 9 11 5 6 - - -
05/08:30pm - - - - - NE 11 11 6 6 - - -
05/08:00pm - - - - - NE 11 15 6 8 - - -
05/07:30pm - - - - - NE 9 11 5 6 - - -
05/07:00pm - - - - - ENE 11 13 6 7 - - -
05/06:30pm - - - - - E 9 11 5 6 - - -
05/06:00pm - - - - - E 9 11 5 6 - - -
05/05:30pm - - - - - E 7 9 4 5 - - -
05/05:00pm - - - - - S 9 15 5 8 - - -
05/04:30pm - - - - - SSE 9 13 5 7 - - -
05/04:00pm - - - - - SSE 9 11 5 6 - - -
05/03:30pm - - - - - S 13 17 7 9 - - -
05/03:00pm - - - - - WSW 24 32 13 17 - - -
05/02:40pm - - - - - WSW 19 37 10 20 - - -
05/02:30pm - - - - - SW 11 15 6 8 - - -
05/02:00pm - - - - - SSW 13 17 7 9 - - -
05/01:30pm - - - - - W 22 32 12 17 - - -
05/01:00pm - - - - - NNW 22 26 12 14 - - -
05/12:30pm - - - - - NNW 24 26 13 14 - - -
05/12:00pm - - - - - NNW 28 32 15 17 - - -
05/11:30am - - - - - NNW 22 28 12 15 - - -
05/11:00am - - - - - NNW 19 22 10 12 - - -
05/10:30am - - - - - NNW 15 17 8 9 - - -
05/10:00am - - - - - NE 11 15 6 8 - - -
05/09:30am - - - - - NE 11 15 6 8 - - -
05/09:00am - - - - - NNE 13 17 7 9 - - -
05/08:30am - - - - - NE 11 15 6 8 - - -
05/08:00am - - - - - ENE 17 20 9 11 - - -
05/07:30am - - - - - ENE 15 17 8 9 - - -
05/07:00am - - - - - ENE 17 19 9 10 - - -
05/06:30am - - - - - ENE 17 17 9 9 - - -
05/06:00am - - - - - ENE 13 17 7 9 - - -
05/05:30am - - - - - ENE 13 15 7 8 - - -
05/05:00am - - - - - E 11 15 6 8 - - -
05/04:30am - - - - - SW 9 17 5 9 - - -
05/04:00am - - - - - SW 17 22 9 12 - - -
05/03:30am - - - - - SW 19 22 10 12 - - -
05/03:00am - - - - - SW 19 22 10 12 - - -
05/02:30am - - - - - ESE 6 17 3 9 - - -
05/02:00am - - - - - S 13 20 7 11 - - -
05/01:30am - - - - - SSW 15 19 8 10 - - -
05/01:00am - - - - - WSW 17 19 9 10 - - -
05/12:30am - - - - - SSW 6 19 3 10 - - -
05/12:00am - - - - - E 9 11 5 6 - - -

Latest Capital City Observations: Canberra | Sydney | Melbourne | Brisbane | Adelaide | Perth | Hobart | Darwin

Other Formats:

Comma delimited format used in spreadsheet applications
http://www.bom.gov.au/fwo/IDW60901/IDW60901.94607.axf

JavaScript Object Notation format (JSON) in row-major order
http://www.bom.gov.au/fwo/IDW60901/IDW60901.94607.json